sensor_id;sensor_type;location;lat;lon;timestamp;P1;durP1;ratioP1;P2;durP2;ratioP2
25938;SDS011;13739;51.172;4.466;2022-12-18T00:00:21;50.60;;;17.58;;
25938;SDS011;13739;51.172;4.466;2022-12-18T00:02:48;56.35;;;19.00;;
25938;SDS011;13739;51.172;4.466;2022-12-18T00:05:16;52.53;;;17.02;;
25938;SDS011;13739;51.172;4.466;2022-12-18T00:07:42;59.75;;;18.67;;
25938;SDS011;13739;51.172;4.466;2022-12-18T00:10:08;62.22;;;18.35;;
25938;SDS011;13739;51.172;4.466;2022-12-18T00:12:34;62.53;;;18.30;;
25938;SDS011;13739;51.172;4.466;2022-12-18T00:15:00;56.25;;;18.75;;
25938;SDS011;13739;51.172;4.466;2022-12-18T00:17:26;80.88;;;21.20;;
25938;SDS011;13739;51.172;4.466;2022-12-18T00:19:52;64.32;;;19.65;;
25938;SDS011;13739;51.172;4.466;2022-12-18T00:22:18;63.35;;;19.65;;
25938;SDS011;13739;51.172;4.466;2022-12-18T00:24:56;50.70;;;18.65;;
25938;SDS011;13739;51.172;4.466;2022-12-18T00:27:32;54.40;;;19.10;;
25938;SDS011;13739;51.172;4.466;2022-12-18T00:38:01;62.03;;;19.75;;
25938;SDS011;13739;51.172;4.466;2022-12-18T00:40:28;57.38;;;20.48;;
25938;SDS011;13739;51.172;4.466;2022-12-18T00:42:54;67.35;;;20.55;;
25938;SDS011;13739;51.172;4.466;2022-12-18T00:45:27;51.55;;;18.45;;
25938;SDS011;13739;51.172;4.466;2022-12-18T00:47:56;61.80;;;19.33;;
25938;SDS011;13739;51.172;4.466;2022-12-18T00:50:26;67.93;;;21.55;;
25938;SDS011;13739;51.172;4.466;2022-12-18T00:52:55;59.95;;;20.48;;
25938;SDS011;13739;51.172;4.466;2022-12-18T00:55:23;72.57;;;20.00;;
25938;SDS011;13739;51.172;4.466;2022-12-18T00:57:51;59.60;;;18.65;;
25938;SDS011;13739;51.172;4.466;2022-12-18T01:00:22;61.70;;;20.17;;
25938;SDS011;13739;51.172;4.466;2022-12-18T01:02:55;59.47;;;17.75;;
25938;SDS011;13739;51.172;4.466;2022-12-18T01:05:34;56.10;;;19.35;;
25938;SDS011;13739;51.172;4.466;2022-12-18T01:08:09;66.60;;;20.30;;
25938;SDS011;13739;51.172;4.466;2022-12-18T01:10:35;53.50;;;19.73;;
25938;SDS011;13739;51.172;4.466;2022-12-18T01:13:02;65.20;;;18.70;;
25938;SDS011;13739;51.172;4.466;2022-12-18T01:15:29;57.35;;;19.90;;
25938;SDS011;13739;51.172;4.466;2022-12-18T01:17:56;60.38;;;19.25;;
25938;SDS011;13739;51.172;4.466;2022-12-18T01:20:24;61.17;;;19.00;;
25938;SDS011;13739;51.172;4.466;2022-12-18T01:22:51;61.53;;;18.85;;
25938;SDS011;13739;51.172;4.466;2022-12-18T01:25:18;53.58;;;18.10;;
25938;SDS011;13739;51.172;4.466;2022-12-18T01:27:46;62.28;;;20.83;;
25938;SDS011;13739;51.172;4.466;2022-12-18T01:30:12;71.60;;;20.45;;
25938;SDS011;13739;51.172;4.466;2022-12-18T01:32:42;50.03;;;17.73;;
25938;SDS011;13739;51.172;4.466;2022-12-18T01:35:10;57.70;;;18.92;;
25938;SDS011;13739;51.172;4.466;2022-12-18T01:37:37;58.85;;;19.70;;
25938;SDS011;13739;51.172;4.466;2022-12-18T01:40:06;60.75;;;18.95;;
25938;SDS011;13739;51.172;4.466;2022-12-18T01:42:34;50.25;;;18.80;;
25938;SDS011;13739;51.172;4.466;2022-12-18T01:45:05;56.45;;;18.25;;
25938;SDS011;13739;51.172;4.466;2022-12-18T01:47:49;61.20;;;19.85;;
25938;SDS011;13739;51.172;4.466;2022-12-18T01:50:20;55.80;;;18.67;;
25938;SDS011;13739;51.172;4.466;2022-12-18T01:53:15;64.03;;;20.15;;
25938;SDS011;13739;51.172;4.466;2022-12-18T01:55:52;67.53;;;19.30;;
25938;SDS011;13739;51.172;4.466;2022-12-18T01:58:23;61.60;;;19.83;;
25938;SDS011;13739;51.172;4.466;2022-12-18T02:01:11;53.17;;;17.23;;
25938;SDS011;13739;51.172;4.466;2022-12-18T02:03:42;58.65;;;20.33;;
25938;SDS011;13739;51.172;4.466;2022-12-18T02:09:15;60.63;;;18.67;;
25938;SDS011;13739;51.172;4.466;2022-12-18T02:17:41;51.55;;;15.90;;
25938;SDS011;13739;51.172;4.466;2022-12-18T02:46:57;51.80;;;16.42;;
25938;SDS011;13739;51.172;4.466;2022-12-18T02:49:26;46.53;;;16.35;;
25938;SDS011;13739;51.172;4.466;2022-12-18T02:55:27;42.78;;;16.20;;
25938;SDS011;13739;51.172;4.466;2022-12-18T02:58:17;40.90;;;13.80;;
25938;SDS011;13739;51.172;4.466;2022-12-18T03:01:08;41.53;;;14.57;;
25938;SDS011;13739;51.172;4.466;2022-12-18T03:06:42;45.15;;;14.15;;
25938;SDS011;13739;51.172;4.466;2022-12-18T03:11:56;44.08;;;15.40;;
25938;SDS011;13739;51.172;4.466;2022-12-18T03:14:53;51.85;;;16.52;;
25938;SDS011;13739;51.172;4.466;2022-12-18T03:26:02;43.85;;;15.68;;
25938;SDS011;13739;51.172;4.466;2022-12-18T03:34:46;41.33;;;13.20;;
25938;SDS011;13739;51.172;4.466;2022-12-18T03:37:17;32.08;;;13.20;;
25938;SDS011;13739;51.172;4.466;2022-12-18T03:39:44;40.35;;;13.88;;
25938;SDS011;13739;51.172;4.466;2022-12-18T03:45:19;41.13;;;14.05;;
25938;SDS011;13739;51.172;4.466;2022-12-18T04:24:18;41.00;;;13.43;;
25938;SDS011;13739;51.172;4.466;2022-12-18T04:39:48;35.75;;;12.25;;
25938;SDS011;13739;51.172;4.466;2022-12-18T05:08:17;27.23;;;11.43;;
25938;SDS011;13739;51.172;4.466;2022-12-18T05:29:14;29.95;;;11.02;;
25938;SDS011;13739;51.172;4.466;2022-12-18T05:31:42;29.23;;;11.65;;
25938;SDS011;13739;51.172;4.466;2022-12-18T05:36:38;30.55;;;11.35;;
25938;SDS011;13739;51.172;4.466;2022-12-18T05:39:04;37.50;;;12.05;;
25938;SDS011;13739;51.172;4.466;2022-12-18T05:41:31;35.20;;;12.27;;
25938;SDS011;13739;51.172;4.466;2022-12-18T05:43:58;30.55;;;11.88;;
25938;SDS011;13739;51.172;4.466;2022-12-18T05:46:28;31.95;;;11.85;;
25938;SDS011;13739;51.172;4.466;2022-12-18T05:48:54;26.50;;;10.77;;
25938;SDS011;13739;51.172;4.466;2022-12-18T05:51:27;31.55;;;11.55;;
25938;SDS011;13739;51.172;4.466;2022-12-18T05:53:53;30.85;;;12.27;;
25938;SDS011;13739;51.172;4.466;2022-12-18T05:56:20;32.65;;;11.52;;
25938;SDS011;13739;51.172;4.466;2022-12-18T05:58:52;30.75;;;11.68;;
25938;SDS011;13739;51.172;4.466;2022-12-18T06:01:21;30.20;;;10.48;;
25938;SDS011;13739;51.172;4.466;2022-12-18T06:03:50;28.13;;;10.73;;
25938;SDS011;13739;51.172;4.466;2022-12-18T06:06:18;24.73;;;10.52;;
25938;SDS011;13739;51.172;4.466;2022-12-18T06:16:32;27.95;;;10.45;;
25938;SDS011;13739;51.172;4.466;2022-12-18T06:19:02;39.13;;;12.15;;
25938;SDS011;13739;51.172;4.466;2022-12-18T06:21:33;30.83;;;11.15;;
25938;SDS011;13739;51.172;4.466;2022-12-18T06:39:32;32.58;;;12.15;;
25938;SDS011;13739;51.172;4.466;2022-12-18T06:41:58;31.77;;;12.45;;
25938;SDS011;13739;51.172;4.466;2022-12-18T06:44:25;28.33;;;11.15;;
25938;SDS011;13739;51.172;4.466;2022-12-18T06:46:51;24.92;;;10.13;;
25938;SDS011;13739;51.172;4.466;2022-12-18T07:33:24;28.92;;;10.13;;
25938;SDS011;13739;51.172;4.466;2022-12-18T08:17:15;21.15;;;10.15;;
25938;SDS011;13739;51.172;4.466;2022-12-18T08:19:41;22.70;;;10.00;;
25938;SDS011;13739;51.172;4.466;2022-12-18T08:22:08;25.85;;;10.35;;
25938;SDS011;13739;51.172;4.466;2022-12-18T08:24:35;28.02;;;10.70;;
25938;SDS011;13739;51.172;4.466;2022-12-18T08:34:55;29.13;;;13.10;;
25938;SDS011;13739;51.172;4.466;2022-12-18T08:37:34;31.98;;;12.60;;
25938;SDS011;13739;51.172;4.466;2022-12-18T09:13:40;26.20;;;10.20;;
25938;SDS011;13739;51.172;4.466;2022-12-18T09:16:06;25.50;;;11.77;;
25938;SDS011;13739;51.172;4.466;2022-12-18T09:31:29;22.92;;;10.07;;
25938;SDS011;13739;51.172;4.466;2022-12-18T09:36:26;23.52;;;10.43;;
25938;SDS011;13739;51.172;4.466;2022-12-18T09:38:53;25.23;;;9.13;;
25938;SDS011;13739;51.172;4.466;2022-12-18T09:41:52;23.88;;;8.93;;
25938;SDS011;13739;51.172;4.466;2022-12-18T09:44:39;23.38;;;9.88;;
25938;SDS011;13739;51.172;4.466;2022-12-18T09:47:50;29.35;;;9.38;;
25938;SDS011;13739;51.172;4.466;2022-12-18T09:50:28;28.83;;;9.95;;
25938;SDS011;13739;51.172;4.466;2022-12-18T09:52:59;24.05;;;9.60;;
25938;SDS011;13739;51.172;4.466;2022-12-18T09:55:35;27.75;;;9.95;;
25938;SDS011;13739;51.172;4.466;2022-12-18T09:58:11;25.88;;;9.60;;
25938;SDS011;13739;51.172;4.466;2022-12-18T10:01:20;23.85;;;8.40;;
25938;SDS011;13739;51.172;4.466;2022-12-18T10:03:48;21.17;;;10.18;;
25938;SDS011;13739;51.172;4.466;2022-12-18T10:06:15;18.27;;;8.68;;
25938;SDS011;13739;51.172;4.466;2022-12-18T10:09:30;25.73;;;9.23;;
25938;SDS011;13739;51.172;4.466;2022-12-18T10:12:27;23.52;;;9.00;;
25938;SDS011;13739;51.172;4.466;2022-12-18T10:18:14;19.50;;;8.88;;
25938;SDS011;13739;51.172;4.466;2022-12-18T10:20:51;23.02;;;9.45;;
25938;SDS011;13739;51.172;4.466;2022-12-18T10:25:57;21.55;;;10.20;;
25938;SDS011;13739;51.172;4.466;2022-12-18T10:28:32;23.55;;;9.20;;
25938;SDS011;13739;51.172;4.466;2022-12-18T10:31:01;25.25;;;9.45;;
25938;SDS011;13739;51.172;4.466;2022-12-18T10:33:28;19.05;;;9.35;;
25938;SDS011;13739;51.172;4.466;2022-12-18T10:35:55;22.55;;;9.98;;
25938;SDS011;13739;51.172;4.466;2022-12-18T10:38:22;22.73;;;9.05;;
25938;SDS011;13739;51.172;4.466;2022-12-18T10:43:28;22.55;;;10.07;;
25938;SDS011;13739;51.172;4.466;2022-12-18T10:48:34;25.30;;;9.60;;
25938;SDS011;13739;51.172;4.466;2022-12-18T10:51:04;25.80;;;10.07;;
25938;SDS011;13739;51.172;4.466;2022-12-18T10:53:31;23.00;;;10.00;;
25938;SDS011;13739;51.172;4.466;2022-12-18T10:55:59;22.52;;;10.60;;
25938;SDS011;13739;51.172;4.466;2022-12-18T10:58:26;23.98;;;10.23;;
25938;SDS011;13739;51.172;4.466;2022-12-18T11:03:42;26.52;;;10.85;;
25938;SDS011;13739;51.172;4.466;2022-12-18T11:06:11;20.13;;;9.20;;
25938;SDS011;13739;51.172;4.466;2022-12-18T11:08:41;21.00;;;9.82;;
25938;SDS011;13739;51.172;4.466;2022-12-18T11:11:18;21.88;;;10.30;;
25938;SDS011;13739;51.172;4.466;2022-12-18T11:13:52;21.10;;;9.98;;
25938;SDS011;13739;51.172;4.466;2022-12-18T11:16:33;25.77;;;9.52;;
25938;SDS011;13739;51.172;4.466;2022-12-18T11:19:13;28.80;;;10.93;;
25938;SDS011;13739;51.172;4.466;2022-12-18T11:21:51;29.42;;;11.52;;
25938;SDS011;13739;51.172;4.466;2022-12-18T11:24:22;27.80;;;11.20;;
25938;SDS011;13739;51.172;4.466;2022-12-18T11:26:51;33.85;;;11.35;;
25938;SDS011;13739;51.172;4.466;2022-12-18T11:29:17;25.90;;;10.20;;
25938;SDS011;13739;51.172;4.466;2022-12-18T11:31:48;22.92;;;10.05;;
25938;SDS011;13739;51.172;4.466;2022-12-18T11:34:26;23.45;;;10.00;;
25938;SDS011;13739;51.172;4.466;2022-12-18T11:36:55;24.38;;;9.65;;
25938;SDS011;13739;51.172;4.466;2022-12-18T11:39:30;24.13;;;11.88;;
25938;SDS011;13739;51.172;4.466;2022-12-18T11:44:48;25.92;;;10.90;;
25938;SDS011;13739;51.172;4.466;2022-12-18T11:47:19;27.35;;;10.55;;
25938;SDS011;13739;51.172;4.466;2022-12-18T11:49:55;24.27;;;10.15;;
25938;SDS011;13739;51.172;4.466;2022-12-18T11:52:26;25.55;;;9.77;;
25938;SDS011;13739;51.172;4.466;2022-12-18T11:55:13;21.80;;;9.65;;
25938;SDS011;13739;51.172;4.466;2022-12-18T12:00:15;21.48;;;9.88;;
25938;SDS011;13739;51.172;4.466;2022-12-18T12:05:56;44.40;;;14.20;;
25938;SDS011;13739;51.172;4.466;2022-12-18T12:11:27;27.52;;;11.60;;
25938;SDS011;13739;51.172;4.466;2022-12-18T12:14:24;22.08;;;10.35;;
25938;SDS011;13739;51.172;4.466;2022-12-18T12:22:30;22.58;;;10.40;;
25938;SDS011;13739;51.172;4.466;2022-12-18T12:33:59;21.75;;;10.73;;
25938;SDS011;13739;51.172;4.466;2022-12-18T12:36:37;38.97;;;13.27;;
25938;SDS011;13739;51.172;4.466;2022-12-18T12:39:31;25.50;;;11.32;;
25938;SDS011;13739;51.172;4.466;2022-12-18T12:42:09;26.17;;;11.07;;
25938;SDS011;13739;51.172;4.466;2022-12-18T12:45:03;26.73;;;10.95;;
25938;SDS011;13739;51.172;4.466;2022-12-18T12:47:32;36.22;;;15.27;;
25938;SDS011;13739;51.172;4.466;2022-12-18T12:50:05;33.97;;;13.65;;
25938;SDS011;13739;51.172;4.466;2022-12-18T12:52:48;33.33;;;12.43;;
25938;SDS011;13739;51.172;4.466;2022-12-18T12:55:27;26.42;;;11.38;;
25938;SDS011;13739;51.172;4.466;2022-12-18T13:00:24;55.20;;;18.05;;
25938;SDS011;13739;51.172;4.466;2022-12-18T13:08:07;40.58;;;14.30;;
25938;SDS011;13739;51.172;4.466;2022-12-18T13:10:36;31.73;;;11.82;;
25938;SDS011;13739;51.172;4.466;2022-12-18T13:15:38;27.75;;;11.80;;
25938;SDS011;13739;51.172;4.466;2022-12-18T13:20:33;23.55;;;11.32;;
25938;SDS011;13739;51.172;4.466;2022-12-18T13:23:00;31.85;;;12.75;;
25938;SDS011;13739;51.172;4.466;2022-12-18T13:28:00;27.67;;;12.18;;
25938;SDS011;13739;51.172;4.466;2022-12-18T13:48:31;31.38;;;13.10;;
25938;SDS011;13739;51.172;4.466;2022-12-18T13:51:00;27.05;;;11.77;;
25938;SDS011;13739;51.172;4.466;2022-12-18T13:53:35;35.53;;;12.57;;
25938;SDS011;13739;51.172;4.466;2022-12-18T13:56:05;36.38;;;13.48;;
25938;SDS011;13739;51.172;4.466;2022-12-18T13:58:31;36.50;;;14.18;;
25938;SDS011;13739;51.172;4.466;2022-12-18T14:00:56;35.47;;;14.18;;
25938;SDS011;13739;51.172;4.466;2022-12-18T14:03:25;27.45;;;12.18;;
25938;SDS011;13739;51.172;4.466;2022-12-18T14:05:53;26.83;;;11.35;;
25938;SDS011;13739;51.172;4.466;2022-12-18T14:08:21;77.53;;;18.33;;
25938;SDS011;13739;51.172;4.466;2022-12-18T14:10:49;45.10;;;14.35;;
25938;SDS011;13739;51.172;4.466;2022-12-18T14:13:21;30.33;;;12.15;;
25938;SDS011;13739;51.172;4.466;2022-12-18T14:15:52;36.03;;;12.45;;
25938;SDS011;13739;51.172;4.466;2022-12-18T14:18:23;35.13;;;13.23;;
25938;SDS011;13739;51.172;4.466;2022-12-18T14:21:02;30.55;;;12.27;;
25938;SDS011;13739;51.172;4.466;2022-12-18T14:23:39;28.52;;;11.38;;
25938;SDS011;13739;51.172;4.466;2022-12-18T14:26:25;36.75;;;12.15;;
25938;SDS011;13739;51.172;4.466;2022-12-18T14:28:54;29.95;;;12.77;;
25938;SDS011;13739;51.172;4.466;2022-12-18T14:31:29;29.45;;;13.30;;
25938;SDS011;13739;51.172;4.466;2022-12-18T14:33:55;27.67;;;11.40;;
25938;SDS011;13739;51.172;4.466;2022-12-18T14:36:26;31.95;;;12.52;;
25938;SDS011;13739;51.172;4.466;2022-12-18T14:38:54;28.15;;;12.32;;
25938;SDS011;13739;51.172;4.466;2022-12-18T14:41:23;34.47;;;13.75;;
25938;SDS011;13739;51.172;4.466;2022-12-18T14:43:51;28.20;;;13.23;;
25938;SDS011;13739;51.172;4.466;2022-12-18T14:46:28;35.72;;;13.90;;
25938;SDS011;13739;51.172;4.466;2022-12-18T14:48:57;32.92;;;14.18;;
25938;SDS011;13739;51.172;4.466;2022-12-18T14:51:26;31.77;;;14.25;;
25938;SDS011;13739;51.172;4.466;2022-12-18T14:53:54;33.78;;;13.55;;
25938;SDS011;13739;51.172;4.466;2022-12-18T14:56:32;31.52;;;13.55;;
25938;SDS011;13739;51.172;4.466;2022-12-18T14:59:03;30.83;;;12.98;;
25938;SDS011;13739;51.172;4.466;2022-12-18T15:04:36;38.30;;;15.88;;
25938;SDS011;13739;51.172;4.466;2022-12-18T15:18:23;33.28;;;15.25;;
25938;SDS011;13739;51.172;4.466;2022-12-18T15:20:54;29.85;;;14.45;;
25938;SDS011;13739;51.172;4.466;2022-12-18T15:23:23;32.17;;;15.25;;
25938;SDS011;13739;51.172;4.466;2022-12-18T15:26:07;30.10;;;14.27;;
25938;SDS011;13739;51.172;4.466;2022-12-18T15:28:39;32.50;;;14.63;;
25938;SDS011;13739;51.172;4.466;2022-12-18T15:36:18;34.15;;;14.48;;
25938;SDS011;13739;51.172;4.466;2022-12-18T15:38:47;35.35;;;13.90;;
25938;SDS011;13739;51.172;4.466;2022-12-18T15:41:21;35.58;;;13.85;;
25938;SDS011;13739;51.172;4.466;2022-12-18T15:43:48;35.88;;;13.82;;
25938;SDS011;13739;51.172;4.466;2022-12-18T15:46:16;30.98;;;13.05;;
25938;SDS011;13739;51.172;4.466;2022-12-18T15:48:45;35.22;;;13.20;;
25938;SDS011;13739;51.172;4.466;2022-12-18T15:51:20;35.40;;;13.82;;
25938;SDS011;13739;51.172;4.466;2022-12-18T15:53:50;30.33;;;13.35;;
25938;SDS011;13739;51.172;4.466;2022-12-18T15:56:18;31.60;;;12.80;;
25938;SDS011;13739;51.172;4.466;2022-12-18T15:59:04;35.92;;;13.23;;
25938;SDS011;13739;51.172;4.466;2022-12-18T16:01:41;27.85;;;12.65;;
25938;SDS011;13739;51.172;4.466;2022-12-18T16:04:13;36.10;;;13.70;;
25938;SDS011;13739;51.172;4.466;2022-12-18T16:06:40;36.50;;;13.13;;
25938;SDS011;13739;51.172;4.466;2022-12-18T16:09:06;36.15;;;13.07;;
25938;SDS011;13739;51.172;4.466;2022-12-18T16:11:33;36.33;;;14.32;;
25938;SDS011;13739;51.172;4.466;2022-12-18T16:16:55;34.95;;;13.50;;
25938;SDS011;13739;51.172;4.466;2022-12-18T16:19:22;33.08;;;13.90;;
25938;SDS011;13739;51.172;4.466;2022-12-18T16:21:48;32.10;;;12.77;;
25938;SDS011;13739;51.172;4.466;2022-12-18T16:24:19;34.15;;;13.57;;
25938;SDS011;13739;51.172;4.466;2022-12-18T16:26:47;37.13;;;14.50;;
25938;SDS011;13739;51.172;4.466;2022-12-18T16:29:13;36.40;;;14.10;;
25938;SDS011;13739;51.172;4.466;2022-12-18T16:31:39;32.20;;;14.45;;
25938;SDS011;13739;51.172;4.466;2022-12-18T16:34:22;37.20;;;14.57;;
25938;SDS011;13739;51.172;4.466;2022-12-18T16:36:48;31.65;;;12.73;;
25938;SDS011;13739;51.172;4.466;2022-12-18T16:39:16;37.58;;;13.65;;
25938;SDS011;13739;51.172;4.466;2022-12-18T16:41:41;35.28;;;14.77;;
25938;SDS011;13739;51.172;4.466;2022-12-18T16:44:07;37.90;;;14.43;;
25938;SDS011;13739;51.172;4.466;2022-12-18T16:46:34;36.30;;;14.13;;
25938;SDS011;13739;51.172;4.466;2022-12-18T16:48:59;36.00;;;14.60;;
25938;SDS011;13739;51.172;4.466;2022-12-18T16:51:26;37.45;;;13.70;;
25938;SDS011;13739;51.172;4.466;2022-12-18T16:53:52;40.58;;;14.57;;
25938;SDS011;13739;51.172;4.466;2022-12-18T16:56:19;39.03;;;15.05;;
25938;SDS011;13739;51.172;4.466;2022-12-18T16:58:55;34.60;;;12.65;;
25938;SDS011;13739;51.172;4.466;2022-12-18T17:01:23;36.10;;;13.45;;
25938;SDS011;13739;51.172;4.466;2022-12-18T17:03:56;36.50;;;14.55;;
25938;SDS011;13739;51.172;4.466;2022-12-18T17:06:23;34.10;;;13.77;;
25938;SDS011;13739;51.172;4.466;2022-12-18T17:08:56;30.73;;;14.20;;
25938;SDS011;13739;51.172;4.466;2022-12-18T17:11:23;37.83;;;14.02;;
25938;SDS011;13739;51.172;4.466;2022-12-18T17:13:49;40.08;;;15.18;;
25938;SDS011;13739;51.172;4.466;2022-12-18T17:16:15;39.28;;;14.95;;
25938;SDS011;13739;51.172;4.466;2022-12-18T17:18:41;35.42;;;15.07;;
25938;SDS011;13739;51.172;4.466;2022-12-18T17:21:08;37.90;;;13.55;;
25938;SDS011;13739;51.172;4.466;2022-12-18T17:23:35;39.55;;;15.85;;
25938;SDS011;13739;51.172;4.466;2022-12-18T17:26:01;36.78;;;14.20;;
25938;SDS011;13739;51.172;4.466;2022-12-18T17:28:28;28.58;;;12.52;;
25938;SDS011;13739;51.172;4.466;2022-12-18T17:30:55;34.17;;;13.07;;
25938;SDS011;13739;51.172;4.466;2022-12-18T17:33:22;33.03;;;13.32;;
25938;SDS011;13739;51.172;4.466;2022-12-18T17:35:48;40.53;;;14.65;;
25938;SDS011;13739;51.172;4.466;2022-12-18T17:38:14;34.28;;;13.95;;
25938;SDS011;13739;51.172;4.466;2022-12-18T17:40:40;31.75;;;13.50;;
25938;SDS011;13739;51.172;4.466;2022-12-18T17:43:06;37.35;;;14.70;;
25938;SDS011;13739;51.172;4.466;2022-12-18T17:45:39;35.53;;;15.02;;
25938;SDS011;13739;51.172;4.466;2022-12-18T17:48:05;83.40;;;22.95;;
25938;SDS011;13739;51.172;4.466;2022-12-18T17:50:33;99.40;;;28.52;;
25938;SDS011;13739;51.172;4.466;2022-12-18T17:52:59;51.35;;;18.63;;
25938;SDS011;13739;51.172;4.466;2022-12-18T17:55:25;43.50;;;15.98;;
25938;SDS011;13739;51.172;4.466;2022-12-18T17:57:51;39.15;;;15.23;;
25938;SDS011;13739;51.172;4.466;2022-12-18T18:00:17;37.47;;;15.20;;
25938;SDS011;13739;51.172;4.466;2022-12-18T18:02:44;35.55;;;14.43;;
25938;SDS011;13739;51.172;4.466;2022-12-18T18:05:10;40.90;;;16.35;;
25938;SDS011;13739;51.172;4.466;2022-12-18T18:07:36;39.25;;;15.98;;
25938;SDS011;13739;51.172;4.466;2022-12-18T18:10:04;42.28;;;16.15;;
25938;SDS011;13739;51.172;4.466;2022-12-18T18:12:30;37.13;;;15.23;;
25938;SDS011;13739;51.172;4.466;2022-12-18T18:15:15;45.50;;;17.35;;
25938;SDS011;13739;51.172;4.466;2022-12-18T18:17:40;35.78;;;15.13;;
25938;SDS011;13739;51.172;4.466;2022-12-18T18:20:06;43.00;;;15.75;;
25938;SDS011;13739;51.172;4.466;2022-12-18T18:22:33;45.35;;;16.63;;
25938;SDS011;13739;51.172;4.466;2022-12-18T18:24:58;38.53;;;15.57;;
25938;SDS011;13739;51.172;4.466;2022-12-18T18:27:24;37.03;;;14.85;;
25938;SDS011;13739;51.172;4.466;2022-12-18T18:29:50;41.75;;;15.52;;
25938;SDS011;13739;51.172;4.466;2022-12-18T18:32:16;43.58;;;16.80;;
25938;SDS011;13739;51.172;4.466;2022-12-18T18:34:42;34.30;;;14.52;;
25938;SDS011;13739;51.172;4.466;2022-12-18T18:37:08;41.58;;;15.80;;
25938;SDS011;13739;51.172;4.466;2022-12-18T18:39:34;39.30;;;15.10;;
25938;SDS011;13739;51.172;4.466;2022-12-18T18:42:00;36.03;;;14.27;;
25938;SDS011;13739;51.172;4.466;2022-12-18T18:44:26;36.95;;;14.60;;
25938;SDS011;13739;51.172;4.466;2022-12-18T18:46:52;34.17;;;14.15;;
25938;SDS011;13739;51.172;4.466;2022-12-18T18:49:19;36.45;;;14.40;;
25938;SDS011;13739;51.172;4.466;2022-12-18T18:51:44;41.97;;;15.95;;
25938;SDS011;13739;51.172;4.466;2022-12-18T18:54:10;44.15;;;15.60;;
25938;SDS011;13739;51.172;4.466;2022-12-18T18:56:36;44.35;;;14.35;;
25938;SDS011;13739;51.172;4.466;2022-12-18T18:59:01;47.72;;;15.57;;
25938;SDS011;13739;51.172;4.466;2022-12-18T19:01:27;37.92;;;15.27;;
25938;SDS011;13739;51.172;4.466;2022-12-18T19:03:53;36.35;;;13.98;;
25938;SDS011;13739;51.172;4.466;2022-12-18T19:06:20;33.95;;;13.05;;
25938;SDS011;13739;51.172;4.466;2022-12-18T19:08:48;39.88;;;15.32;;
25938;SDS011;13739;51.172;4.466;2022-12-18T19:11:15;40.47;;;17.05;;
25938;SDS011;13739;51.172;4.466;2022-12-18T19:13:59;36.38;;;14.40;;
25938;SDS011;13739;51.172;4.466;2022-12-18T19:16:27;39.22;;;16.13;;
25938;SDS011;13739;51.172;4.466;2022-12-18T19:18:53;33.35;;;13.90;;
25938;SDS011;13739;51.172;4.466;2022-12-18T19:21:20;32.58;;;13.25;;
25938;SDS011;13739;51.172;4.466;2022-12-18T19:23:46;35.85;;;13.68;;
25938;SDS011;13739;51.172;4.466;2022-12-18T19:26:13;39.50;;;14.45;;
25938;SDS011;13739;51.172;4.466;2022-12-18T19:28:40;35.65;;;14.60;;
25938;SDS011;13739;51.172;4.466;2022-12-18T19:31:07;38.67;;;13.88;;
25938;SDS011;13739;51.172;4.466;2022-12-18T19:33:35;43.13;;;16.35;;
25938;SDS011;13739;51.172;4.466;2022-12-18T19:36:09;42.25;;;17.00;;
25938;SDS011;13739;51.172;4.466;2022-12-18T19:38:36;38.95;;;14.52;;
25938;SDS011;13739;51.172;4.466;2022-12-18T19:41:03;42.90;;;15.70;;
25938;SDS011;13739;51.172;4.466;2022-12-18T19:43:32;32.78;;;13.48;;
25938;SDS011;13739;51.172;4.466;2022-12-18T19:46:01;36.50;;;14.65;;
25938;SDS011;13739;51.172;4.466;2022-12-18T19:48:27;44.35;;;16.05;;
25938;SDS011;13739;51.172;4.466;2022-12-18T19:50:52;42.10;;;15.75;;
25938;SDS011;13739;51.172;4.466;2022-12-18T19:53:18;36.10;;;15.35;;
25938;SDS011;13739;51.172;4.466;2022-12-18T19:55:44;35.47;;;14.52;;
25938;SDS011;13739;51.172;4.466;2022-12-18T19:58:09;37.53;;;15.38;;
25938;SDS011;13739;51.172;4.466;2022-12-18T20:00:35;41.53;;;16.10;;
25938;SDS011;13739;51.172;4.466;2022-12-18T20:03:01;38.28;;;15.68;;
25938;SDS011;13739;51.172;4.466;2022-12-18T20:05:27;38.78;;;14.52;;
25938;SDS011;13739;51.172;4.466;2022-12-18T20:07:53;40.53;;;15.30;;
25938;SDS011;13739;51.172;4.466;2022-12-18T20:10:18;38.75;;;14.25;;
25938;SDS011;13739;51.172;4.466;2022-12-18T20:12:45;38.70;;;14.10;;
25938;SDS011;13739;51.172;4.466;2022-12-18T20:15:11;42.85;;;15.07;;
25938;SDS011;13739;51.172;4.466;2022-12-18T20:17:37;42.25;;;15.73;;
25938;SDS011;13739;51.172;4.466;2022-12-18T20:20:03;38.53;;;15.23;;
25938;SDS011;13739;51.172;4.466;2022-12-18T20:22:30;42.95;;;15.30;;
25938;SDS011;13739;51.172;4.466;2022-12-18T20:24:56;40.10;;;14.10;;
25938;SDS011;13739;51.172;4.466;2022-12-18T20:27:28;34.30;;;14.43;;
25938;SDS011;13739;51.172;4.466;2022-12-18T20:29:53;39.40;;;14.85;;
25938;SDS011;13739;51.172;4.466;2022-12-18T20:32:19;35.13;;;14.10;;
25938;SDS011;13739;51.172;4.466;2022-12-18T20:34:45;35.92;;;13.77;;
25938;SDS011;13739;51.172;4.466;2022-12-18T20:37:11;35.80;;;12.93;;
25938;SDS011;13739;51.172;4.466;2022-12-18T20:39:37;40.42;;;14.30;;
25938;SDS011;13739;51.172;4.466;2022-12-18T20:42:02;40.80;;;14.25;;
25938;SDS011;13739;51.172;4.466;2022-12-18T20:44:28;33.50;;;12.85;;
25938;SDS011;13739;51.172;4.466;2022-12-18T20:46:55;42.60;;;14.45;;
25938;SDS011;13739;51.172;4.466;2022-12-18T20:49:22;42.10;;;15.52;;
25938;SDS011;13739;51.172;4.466;2022-12-18T20:51:49;37.30;;;14.27;;
25938;SDS011;13739;51.172;4.466;2022-12-18T20:54:16;40.97;;;15.35;;
25938;SDS011;13739;51.172;4.466;2022-12-18T20:56:42;37.88;;;15.30;;
25938;SDS011;13739;51.172;4.466;2022-12-18T20:59:08;41.22;;;14.32;;
25938;SDS011;13739;51.172;4.466;2022-12-18T21:01:33;37.63;;;14.52;;
25938;SDS011;13739;51.172;4.466;2022-12-18T21:03:59;37.40;;;13.43;;
25938;SDS011;13739;51.172;4.466;2022-12-18T21:06:25;36.92;;;14.68;;
25938;SDS011;13739;51.172;4.466;2022-12-18T21:08:50;38.40;;;13.98;;
25938;SDS011;13739;51.172;4.466;2022-12-18T21:14:05;37.17;;;14.27;;
25938;SDS011;13739;51.172;4.466;2022-12-18T21:16:33;32.15;;;13.10;;
25938;SDS011;13739;51.172;4.466;2022-12-18T21:18:59;32.05;;;12.43;;
25938;SDS011;13739;51.172;4.466;2022-12-18T21:21:25;40.05;;;13.65;;
25938;SDS011;13739;51.172;4.466;2022-12-18T21:23:50;36.90;;;14.23;;
25938;SDS011;13739;51.172;4.466;2022-12-18T21:28:46;30.08;;;11.95;;
25938;SDS011;13739;51.172;4.466;2022-12-18T21:31:16;31.35;;;12.90;;
25938;SDS011;13739;51.172;4.466;2022-12-18T21:33:42;34.20;;;13.15;;
25938;SDS011;13739;51.172;4.466;2022-12-18T21:36:07;41.38;;;14.75;;
25938;SDS011;13739;51.172;4.466;2022-12-18T21:38:34;32.88;;;13.40;;
25938;SDS011;13739;51.172;4.466;2022-12-18T21:41:02;36.20;;;13.60;;
25938;SDS011;13739;51.172;4.466;2022-12-18T21:43:31;37.88;;;13.88;;
25938;SDS011;13739;51.172;4.466;2022-12-18T21:46:15;37.72;;;13.50;;
25938;SDS011;13739;51.172;4.466;2022-12-18T21:48:41;36.67;;;14.82;;
25938;SDS011;13739;51.172;4.466;2022-12-18T21:51:08;35.28;;;13.95;;
25938;SDS011;13739;51.172;4.466;2022-12-18T21:53:34;33.85;;;13.13;;